^^
Station Historical Data
Daily Summary for October 16, 2021 Units:  Both    English   Metric
Daily Weekly Monthly Yearly
  High: Low: Average:
Temperature: 58.7 °F /  14.8 °C 51.1 °F /  10.6 °C 55.2 °F /  12.9 °C
Dew Point: 55 °F /  12.8 °C 43.4 °F /  6.3 °C 48.4 °F /  9.1 °C
Humidity: 88% 61% 78%
Wind Speed: 9mph /  14.5km/h - 4.7mph /  7.6km/h
Wind Gust: 15mph /  24.1km/h - -
Wind- - West
Pressure: 29.82 in /  1009.7 hPa 29.69 in /  1005.3 hPa -
Precipitation: 0.24 in /  6.1 mm    
 
 
Tabular Data for October 16, 2021
Time Temperature Dew Point Pressure Wind Wind Speed Wind Gust Humidity Rainfall Rate (Hourly) solar
00:00 58.4 °F /  14.7 °C 54.9 °F /  12.7 °C 29.75in /  1007.3hPa NNW 1mph /  1.6km/h 1mph /  1.6km/h 88% 0.00in /  0mm 0 W/m2
00:05 58.5 °F /  14.7 °C 55 °F /  12.8 °C 29.74in /  1007hPa NNW 1mph /  1.6km/h 2mph /  3.2km/h 88% 0.00in /  0mm 0 W/m2
00:10 58.5 °F /  14.7 °C 55 °F /  12.8 °C 29.74in /  1007hPa NW 2mph /  3.2km/h 2mph /  3.2km/h 88% 0.00in /  0mm 0 W/m2
00:15 58.5 °F /  14.7 °C 55 °F /  12.8 °C 29.74in /  1007hPa NW 2mph /  3.2km/h 2mph /  3.2km/h 88% 0.00in /  0mm 0 W/m2
00:20 58.4 °F /  14.7 °C 54.9 °F /  12.7 °C 29.73in /  1006.7hPa NNW 2mph /  3.2km/h 2mph /  3.2km/h 88% 0.00in /  0mm 0 W/m2
00:25 58.4 °F /  14.7 °C 54.9 °F /  12.7 °C 29.73in /  1006.7hPa NNW 2mph /  3.2km/h 2mph /  3.2km/h 88% 0.00in /  0mm 0 W/m2
00:30 58.3 °F /  14.6 °C 54.8 °F /  12.7 °C 29.73in /  1006.7hPa NNW 2mph /  3.2km/h 3mph /  4.8km/h 88% 0.00in /  0mm 0 W/m2
00:35 58.3 °F /  14.6 °C 54.4 °F /  12.4 °C 29.73in /  1006.7hPa WSW 2mph /  3.2km/h 3mph /  4.8km/h 87% 0.00in /  0mm 0 W/m2
00:40 58.2 °F /  14.6 °C 54.3 °F /  12.4 °C 29.72in /  1006.3hPa NNE 2mph /  3.2km/h 2mph /  3.2km/h 87% 0.00in /  0mm 0 W/m2
00:45 58.2 °F /  14.6 °C 54.3 °F /  12.4 °C 29.72in /  1006.3hPa NNW 2mph /  3.2km/h 3mph /  4.8km/h 87% 0.00in /  0mm 0 W/m2
00:50 58.2 °F /  14.6 °C 54.3 °F /  12.4 °C 29.72in /  1006.3hPa North 2mph /  3.2km/h 4mph /  6.4km/h 87% 0.00in /  0mm 0 W/m2
00:55 58.2 °F /  14.6 °C 54.3 °F /  12.4 °C 29.72in /  1006.3hPa WNW 2mph /  3.2km/h 4mph /  6.4km/h 87% 0.00in /  0mm 0 W/m2
01:00 58.3 °F /  14.6 °C 54.4 °F /  12.4 °C 29.72in /  1006.3hPa WNW 2mph /  3.2km/h 2mph /  3.2km/h 87% 0.00in /  0mm 0 W/m2
01:05 58.3 °F /  14.6 °C 54.4 °F /  12.4 °C 29.72in /  1006.3hPa NE 1mph /  1.6km/h 2mph /  3.2km/h 87% 0.00in /  0mm 0 W/m2
01:10 58.4 °F /  14.7 °C 54.5 °F /  12.5 °C 29.71in /  1006hPa NNW 2mph /  3.2km/h 3mph /  4.8km/h 87% 0.00in /  0mm 0 W/m2
01:15 58.4 °F /  14.7 °C 54.5 °F /  12.5 °C 29.70in /  1005.6hPa WSW 2mph /  3.2km/h 3mph /  4.8km/h 87% 0.00in /  0mm 0 W/m2
01:20 58.3 °F /  14.6 °C 54.1 °F /  12.3 °C 29.70in /  1005.6hPa SW 2mph /  3.2km/h 2mph /  3.2km/h 86% 0.00in /  0mm 0 W/m2
01:25 58.3 °F /  14.6 °C 54.1 °F /  12.3 °C 29.71in /  1006hPa NNE 2mph /  3.2km/h 3mph /  4.8km/h 86% 0.00in /  0mm 0 W/m2
01:30 58.4 °F /  14.7 °C 54.2 °F /  12.3 °C 29.69in /  1005.3hPa NW 3mph /  4.8km/h 3mph /  4.8km/h 86% 0.00in /  0mm 0 W/m2
01:35 58.6 °F /  14.8 °C 54.7 °F /  12.6 °C 29.70in /  1005.6hPa NNW 3mph /  4.8km/h 3mph /  4.8km/h 87% 0.00in /  0mm 0 W/m2
01:40 58.7 °F /  14.8 °C 54.8 °F /  12.7 °C 29.71in /  1006hPa NNW 3mph /  4.8km/h 3mph /  4.8km/h 87% 0.00in /  0mm 0 W/m2
01:45 58.6 °F /  14.8 °C 54.7 °F /  12.6 °C 29.71in /  1006hPa NNW 3mph /  4.8km/h 3mph /  4.8km/h 87% 0.00in /  0mm 0 W/m2
01:50 58.7 °F /  14.8 °C 54.8 °F /  12.7 °C 29.71in /  1006hPa NNW 3mph /  4.8km/h 3mph /  4.8km/h 87% 0.00in /  0mm 0 W/m2
01:55 58.6 °F /  14.8 °C 54.7 °F /  12.6 °C 29.72in /  1006.3hPa NW 2mph /  3.2km/h 3mph /  4.8km/h 87% 0.00in /  0mm 0 W/m2
02:00 58.6 °F /  14.8 °C 54.7 °F /  12.6 °C 29.72in /  1006.3hPa NE 2mph /  3.2km/h 3mph /  4.8km/h 87% 0.00in /  0mm 0 W/m2
02:05 58.5 °F /  14.7 °C 54.6 °F /  12.6 °C 29.72in /  1006.3hPa ENE 2mph /  3.2km/h 3mph /  4.8km/h 87% 0.00in /  0mm 0 W/m2
02:10 58.5 °F /  14.7 °C 54.6 °F /  12.6 °C 29.72in /  1006.3hPa North 2mph /  3.2km/h 4mph /  6.4km/h 87% 0.00in /  0mm 0 W/m2
02:15 58.4 °F /  14.7 °C 54.2 °F /  12.3 °C 29.73in /  1006.7hPa NNW 2mph /  3.2km/h 4mph /  6.4km/h 86% 0.00in /  0mm 0 W/m2
02:20 58.4 °F /  14.7 °C 54.2 °F /  12.3 °C 29.73in /  1006.7hPa NNW 2mph /  3.2km/h 2mph /  3.2km/h 86% 0.00in /  0mm 0 W/m2
02:25 58.3 °F /  14.6 °C 54.1 °F /  12.3 °C 29.73in /  1006.7hPa NNW 2mph /  3.2km/h 5mph /  8km/h 86% 0.00in /  0mm 0 W/m2
02:30 58.3 °F /  14.6 °C 54.1 °F /  12.3 °C 29.73in /  1006.7hPa NNW 3mph /  4.8km/h 3mph /  4.8km/h 86% 0.00in /  0mm 0 W/m2
02:35 58.3 °F /  14.6 °C 54.1 °F /  12.3 °C 29.72in /  1006.3hPa North 2mph /  3.2km/h 3mph /  4.8km/h 86% 0.00in /  0mm 0 W/m2
02:40 58.3 °F /  14.6 °C 54.1 °F /  12.3 °C 29.72in /  1006.3hPa WNW 2mph /  3.2km/h 4mph /  6.4km/h 86% 0.00in /  0mm 0 W/m2
02:45 58.3 °F /  14.6 °C 54.1 °F /  12.3 °C 29.72in /  1006.3hPa North 2mph /  3.2km/h 4mph /  6.4km/h 86% 0.00in /  0mm 0 W/m2
02:50 58.3 °F /  14.6 °C 54.1 °F /  12.3 °C 29.72in /  1006.3hPa WNW 2mph /  3.2km/h 6mph /  9.7km/h 86% 0.00in /  0mm 0 W/m2
02:55 58.2 °F /  14.6 °C 54 °F /  12.2 °C 29.72in /  1006.3hPa North 3mph /  4.8km/h 7mph /  11.3km/h 86% 0.00in /  0mm 0 W/m2
03:00 58.1 °F /  14.5 °C 53.9 °F /  12.2 °C 29.72in /  1006.3hPa ENE 3mph /  4.8km/h 3mph /  4.8km/h 86% 0.13in /  3.3mm 0 W/m2
03:05 58 °F /  14.4 °C 53.8 °F /  12.1 °C 29.72in /  1006.3hPa West 3mph /  4.8km/h 4mph /  6.4km/h 86% 0.20in /  5.08mm 0 W/m2
03:10 58 °F /  14.4 °C 54.2 °F /  12.3 °C 29.72in /  1006.3hPa NNW 4mph /  6.4km/h 4mph /  6.4km/h 87% 0.08in /  2.03mm 0 W/m2
03:15 57.8 °F /  14.3 °C 54 °F /  12.2 °C 29.72in /  1006.3hPa NW 4mph /  6.4km/h 7mph /  11.3km/h 87% 0.05in /  1.27mm 0 W/m2
03:20 57.6 °F /  14.2 °C 53.8 °F /  12.1 °C 29.71in /  1006hPa NNE 4mph /  6.4km/h 4mph /  6.4km/h 87% 0.04in /  1.02mm 0 W/m2
03:25 57.4 °F /  14.1 °C 53.6 °F /  12 °C 29.70in /  1005.6hPa NNW 4mph /  6.4km/h 4mph /  6.4km/h 87% 0.04in /  1.02mm 0 W/m2
03:30 57.2 °F /  14 °C 53.4 °F /  11.9 °C 29.70in /  1005.6hPa NW 4mph /  6.4km/h 9mph /  14.5km/h 87% 0.04in /  1.02mm 0 W/m2
03:35 57.1 °F /  13.9 °C 53.6 °F /  12 °C 29.70in /  1005.6hPa NW 4mph /  6.4km/h 9mph /  14.5km/h 88% 0.04in /  1.02mm 0 W/m2
03:40 56.9 °F /  13.8 °C 53.4 °F /  11.9 °C 29.70in /  1005.6hPa NW 4mph /  6.4km/h 4mph /  6.4km/h 88% 0.00in /  0mm 0 W/m2
03:45 56.6 °F /  13.7 °C 53.1 °F /  11.7 °C 29.71in /  1006hPa WNW 4mph /  6.4km/h 4mph /  6.4km/h 88% 0.00in /  0mm 0 W/m2
03:50 56.3 °F /  13.5 °C 52.5 °F /  11.4 °C 29.71in /  1006hPa NW 6mph /  9.7km/h 6mph /  9.7km/h 87% 0.00in /  0mm 0 W/m2
03:55 55.1 °F /  12.8 °C 50 °F /  10 °C 29.70in /  1005.6hPa NW 8mph /  12.9km/h 11mph /  17.7km/h 83% 0.00in /  0mm 0 W/m2
04:00 54.4 °F /  12.4 °C 49.3 °F /  9.6 °C 29.69in /  1005.3hPa NNW 9mph /  14.5km/h 9mph /  14.5km/h 83% 0.00in /  0mm 0 W/m2
04:05 53.9 °F /  12.2 °C 48.9 °F /  9.4 °C 29.70in /  1005.6hPa NW 9mph /  14.5km/h 9mph /  14.5km/h 83% 0.00in /  0mm 0 W/m2
04:10 53.5 °F /  11.9 °C 48.5 °F /  9.2 °C 29.70in /  1005.6hPa West 7mph /  11.3km/h 12mph /  19.3km/h 83% 0.00in /  0mm 0 W/m2
04:15 53.4 °F /  11.9 °C 49 °F /  9.4 °C 29.71in /  1006hPa NW 7mph /  11.3km/h 12mph /  19.3km/h 85% 0.00in /  0mm 0 W/m2
04:20 53.3 °F /  11.8 °C 48.9 °F /  9.4 °C 29.71in /  1006hPa NNW 7mph /  11.3km/h 15mph /  24.1km/h 85% 0.00in /  0mm 0 W/m2
04:25 52.9 °F /  11.6 °C 48.2 °F /  9 °C 29.71in /  1006hPa WNW 7mph /  11.3km/h 15mph /  24.1km/h 84% 0.00in /  0mm 0 W/m2
04:30 52.6 °F /  11.4 °C 47.9 °F /  8.8 °C 29.72in /  1006.3hPa NW 6mph /  9.7km/h 9mph /  14.5km/h 84% 0.00in /  0mm 0 W/m2
04:35 52.3 °F /  11.3 °C 47.6 °F /  8.7 °C 29.71in /  1006hPa NW 7mph /  11.3km/h 9mph /  14.5km/h 84% 0.09in /  2.29mm 0 W/m2
04:40 52.2 °F /  11.2 °C 47.5 °F /  8.6 °C 29.72in /  1006.3hPa WNW 7mph /  11.3km/h 7mph /  11.3km/h 84% 0.13in /  3.3mm 0 W/m2
04:45 51.8 °F /  11 °C 47.1 °F /  8.4 °C 29.72in /  1006.3hPa NW 6mph /  9.7km/h 11mph /  17.7km/h 84% 0.15in /  3.81mm 0 W/m2
04:50 51.7 °F /  10.9 °C 47.3 °F /  8.5 °C 29.72in /  1006.3hPa NW 7mph /  11.3km/h 7mph /  11.3km/h 85% 0.12in /  3.05mm 0 W/m2
04:55 51.7 °F /  10.9 °C 47.3 °F /  8.5 °C 29.72in /  1006.3hPa WNW 7mph /  11.3km/h 11mph /  17.7km/h 85% 0.07in /  1.78mm 0 W/m2
05:00 51.8 °F /  11 °C 47.7 °F /  8.7 °C 29.72in /  1006.3hPa WSW 7mph /  11.3km/h 7mph /  11.3km/h 86% 0.07in /  1.78mm 0 W/m2
05:05 52 °F /  11.1 °C 48.3 °F /  9.1 °C 29.72in /  1006.3hPa NNW 6mph /  9.7km/h 7mph /  11.3km/h 87% 0.06in /  1.52mm 0 W/m2
05:10 52.2 °F /  11.2 °C 48.8 °F /  9.3 °C 29.71in /  1006hPa NW 5mph /  8km/h 9mph /  14.5km/h 88% 0.04in /  1.02mm 0 W/m2
05:15 52.3 °F /  11.3 °C 48.9 °F /  9.4 °C 29.71in /  1006hPa West 6mph /  9.7km/h 9mph /  14.5km/h 88% 0.00in /  0mm 0 W/m2
05:20 52.3 °F /  11.3 °C 48.9 °F /  9.4 °C 29.72in /  1006.3hPa NNW 6mph /  9.7km/h 10mph /  16.1km/h 88% 0.00in /  0mm 0 W/m2
05:25 52.1 °F /  11.2 °C 48.3 °F /  9.1 °C 29.71in /  1006hPa West 5mph /  8km/h 10mph /  16.1km/h 87% 0.00in /  0mm 0 W/m2
05:30 52.2 °F /  11.2 °C 48.4 °F /  9.1 °C 29.72in /  1006.3hPa WNW 5mph /  8km/h 5mph /  8km/h 87% 0.04in /  1.02mm 0 W/m2
05:35 52.2 °F /  11.2 °C 48.1 °F /  8.9 °C 29.72in /  1006.3hPa WSW 5mph /  8km/h 5mph /  8km/h 86% 0.04in /  1.02mm 0 W/m2
05:40 52.1 °F /  11.2 °C 48 °F /  8.9 °C 29.72in /  1006.3hPa NW 5mph /  8km/h 11mph /  17.7km/h 86% 0.04in /  1.02mm 0 W/m2
05:45 52.1 °F /  11.2 °C 48 °F /  8.9 °C 29.72in /  1006.3hPa NE 6mph /  9.7km/h 11mph /  17.7km/h 86% 0.00in /  0mm 0 W/m2
05:50 52.2 °F /  11.2 °C 48.1 °F /  8.9 °C 29.72in /  1006.3hPa WSW 5mph /  8km/h 5mph /  8km/h 86% 0.00in /  0mm 0 W/m2
05:55 52.1 °F /  11.2 °C 47.7 °F /  8.7 °C 29.72in /  1006.3hPa NNE 4mph /  6.4km/h 5mph /  8km/h 85% 0.00in /  0mm 0 W/m2
06:00 52.1 °F /  11.2 °C 47.7 °F /  8.7 °C 29.72in /  1006.3hPa NNW 4mph /  6.4km/h 5mph /  8km/h 85% 0.00in /  0mm 0 W/m2
06:05 51.9 °F /  11.1 °C 47.2 °F /  8.4 °C 29.71in /  1006hPa WNW 4mph /  6.4km/h 8mph /  12.9km/h 84% 0.05in /  1.27mm 0 W/m2
06:10 52 °F /  11.1 °C 47.6 °F /  8.7 °C 29.71in /  1006hPa West 5mph /  8km/h 5mph /  8km/h 85% 0.05in /  1.27mm 0 W/m2
06:15 52.1 °F /  11.2 °C 48 °F /  8.9 °C 29.71in /  1006hPa NNW 5mph /  8km/h 5mph /  8km/h 86% 0.05in /  1.27mm 0 W/m2
06:20 52.1 °F /  11.2 °C 48 °F /  8.9 °C 29.72in /  1006.3hPa NW 5mph /  8km/h 6mph /  9.7km/h 86% 0.05in /  1.27mm 0 W/m2
06:25 51.8 °F /  11 °C 47.4 °F /  8.6 °C 29.72in /  1006.3hPa NNW 5mph /  8km/h 6mph /  9.7km/h 85% 0.05in /  1.27mm 0 W/m2
06:30 51.8 °F /  11 °C 47.4 °F /  8.6 °C 29.72in /  1006.3hPa NNW 5mph /  8km/h 6mph /  9.7km/h 85% 0.04in /  1.02mm 0 W/m2
06:35 51.7 °F /  10.9 °C 47 °F /  8.3 °C 29.72in /  1006.3hPa NE 5mph /  8km/h 6mph /  9.7km/h 84% 0.04in /  1.02mm 0 W/m2
06:40 51.6 °F /  10.9 °C 46.9 °F /  8.3 °C 29.73in /  1006.7hPa SW 5mph /  8km/h 5mph /  8km/h 84% 0.07in /  1.78mm 0 W/m2
06:45 51.6 °F /  10.9 °C 47.2 °F /  8.4 °C 29.72in /  1006.3hPa WSW 5mph /  8km/h 5mph /  8km/h 85% 0.09in /  2.29mm 0 W/m2
06:50 51.6 °F /  10.9 °C 47.2 °F /  8.4 °C 29.72in /  1006.3hPa NW 4mph /  6.4km/h 4mph /  6.4km/h 85% 0.09in /  2.29mm 0 W/m2
06:55 51.6 °F /  10.9 °C 47.2 °F /  8.4 °C 29.73in /  1006.7hPa NNW 3mph /  4.8km/h 6mph /  9.7km/h 85% 0.07in /  1.78mm 0 W/m2
07:00 51.5 °F /  10.8 °C 47.1 °F /  8.4 °C 29.73in /  1006.7hPa NW 3mph /  4.8km/h 6mph /  9.7km/h 85% 0.07in /  1.78mm 0 W/m2
07:05 51.5 °F /  10.8 °C 47.1 °F /  8.4 °C 29.73in /  1006.7hPa NE 3mph /  4.8km/h 6mph /  9.7km/h 85% 0.09in /  2.29mm 0 W/m2
07:10 51.4 °F /  10.8 °C 47 °F /  8.3 °C 29.73in /  1006.7hPa NW 3mph /  4.8km/h 3mph /  4.8km/h 85% 0.06in /  1.52mm 0 W/m2
07:15 51.2 °F /  10.7 °C 46.5 °F /  8.1 °C 29.73in /  1006.7hPa NW 3mph /  4.8km/h 5mph /  8km/h 84% 0.06in /  1.52mm 0 W/m2
07:20 51.2 °F /  10.7 °C 46.5 °F /  8.1 °C 29.73in /  1006.7hPa North 3mph /  4.8km/h 3mph /  4.8km/h 84% 0.06in /  1.52mm 0 W/m2
07:25 51.1 °F /  10.6 °C 46.4 °F /  8 °C 29.72in /  1006.3hPa NNW 2mph /  3.2km/h 3mph /  4.8km/h 84% 0.04in /  1.02mm 0 W/m2
07:30 51.1 °F /  10.6 °C 46.7 °F /  8.2 °C 29.72in /  1006.3hPa WNW 2mph /  3.2km/h 3mph /  4.8km/h 85% 0.00in /  0mm 0 W/m2
07:35 51.1 °F /  10.6 °C 46.7 °F /  8.2 °C 29.72in /  1006.3hPa NE 2mph /  3.2km/h 3mph /  4.8km/h 85% 0.00in /  0mm 0 W/m2
07:40 51.1 °F /  10.6 °C 46.7 °F /  8.2 °C 29.72in /  1006.3hPa NW 2mph /  3.2km/h 4mph /  6.4km/h 85% 0.00in /  0mm 0 W/m2
07:45 51.1 °F /  10.6 °C 46.7 °F /  8.2 °C 29.72in /  1006.3hPa NNW 2mph /  3.2km/h 4mph /  6.4km/h 85% 0.00in /  0mm 0 W/m2
07:50 51.2 °F /  10.7 °C 47.2 °F /  8.4 °C 29.72in /  1006.3hPa NNW 2mph /  3.2km/h 6mph /  9.7km/h 86% 0.00in /  0mm 0 W/m2
07:55 51.1 °F /  10.6 °C 47.1 °F /  8.4 °C 29.72in /  1006.3hPa West 2mph /  3.2km/h 6mph /  9.7km/h 86% 0.00in /  0mm 0 W/m2
08:00 51.2 °F /  10.7 °C 47.2 °F /  8.4 °C 29.71in /  1006hPa WNW 2mph /  3.2km/h 4mph /  6.4km/h 86% 0.00in /  0mm 0 W/m2
08:05 51.2 °F /  10.7 °C 47.2 °F /  8.4 °C 29.71in /  1006hPa NW 2mph /  3.2km/h 4mph /  6.4km/h 86% 0.00in /  0mm 0 W/m2
08:10 51.4 °F /  10.8 °C 47.4 °F /  8.6 °C 29.72in /  1006.3hPa WNW 2mph /  3.2km/h 4mph /  6.4km/h 86% 0.00in /  0mm 5 W/m2
08:15 51.5 °F /  10.8 °C 47.8 °F /  8.8 °C 29.72in /  1006.3hPa West 3mph /  4.8km/h 4mph /  6.4km/h 87% 0.00in /  0mm 5 W/m2
08:20 51.7 °F /  10.9 °C 48 °F /  8.9 °C 29.72in /  1006.3hPa NNW 3mph /  4.8km/h 4mph /  6.4km/h 87% 0.00in /  0mm 9 W/m2
08:25 51.8 °F /  11 °C 48.1 °F /  8.9 °C 29.72in /  1006.3hPa West 4mph /  6.4km/h 5mph /  8km/h 87% 0.00in /  0mm 14 W/m2
08:30 51.9 °F /  11.1 °C 48.2 °F /  9 °C 29.72in /  1006.3hPa NW 3mph /  4.8km/h 3mph /  4.8km/h 87% 0.00in /  0mm 21 W/m2
08:35 52 °F /  11.1 °C 48.3 °F /  9.1 °C 29.72in /  1006.3hPa NW 3mph /  4.8km/h 3mph /  4.8km/h 87% 0.00in /  0mm 28 W/m2
08:40 52.1 °F /  11.2 °C 48 °F /  8.9 °C 29.72in /  1006.3hPa WSW 3mph /  4.8km/h 4mph /  6.4km/h 86% 0.00in /  0mm 26 W/m2
08:45 52.2 °F /  11.2 °C 48.1 °F /  8.9 °C 29.72in /  1006.3hPa NW 3mph /  4.8km/h 5mph /  8km/h 86% 0.00in /  0mm 39 W/m2
08:50 52.3 °F /  11.3 °C 48.2 °F /  9 °C 29.72in /  1006.3hPa NW 4mph /  6.4km/h 5mph /  8km/h 86% 0.00in /  0mm 46 W/m2
08:55 52.4 °F /  11.3 °C 48.3 °F /  9.1 °C 29.73in /  1006.7hPa West 3mph /  4.8km/h 5mph /  8km/h 86% 0.00in /  0mm 60 W/m2
09:00 52.5 °F /  11.4 °C 48.1 °F /  8.9 °C 29.73in /  1006.7hPa West 4mph /  6.4km/h 6mph /  9.7km/h 85% 0.00in /  0mm 56 W/m2
09:05 52.7 °F /  11.5 °C 48.6 °F /  9.2 °C 29.73in /  1006.7hPa West 4mph /  6.4km/h 6mph /  9.7km/h 86% 0.00in /  0mm 74 W/m2
09:10 52.7 °F /  11.5 °C 48.3 °F /  9.1 °C 29.73in /  1006.7hPa NNW 4mph /  6.4km/h 4mph /  6.4km/h 85% 0.00in /  0mm 76 W/m2
09:15 52.9 °F /  11.6 °C 48.2 °F /  9 °C 29.73in /  1006.7hPa NNW 4mph /  6.4km/h 6mph /  9.7km/h 84% 0.00in /  0mm 37 W/m2
09:20 53 °F /  11.7 °C 48.3 °F /  9.1 °C 29.73in /  1006.7hPa NW 5mph /  8km/h 5mph /  8km/h 84% 0.00in /  0mm 33 W/m2
09:25 53 °F /  11.7 °C 48 °F /  8.9 °C 29.73in /  1006.7hPa West 5mph /  8km/h 5mph /  8km/h 83% 0.00in /  0mm 44 W/m2
09:30 53.1 °F /  11.7 °C 47.7 °F /  8.7 °C 29.72in /  1006.3hPa NW 5mph /  8km/h 6mph /  9.7km/h 82% 0.00in /  0mm 83 W/m2
09:35 53.3 °F /  11.8 °C 48.3 °F /  9.1 °C 29.72in /  1006.3hPa WNW 5mph /  8km/h 6mph /  9.7km/h 83% 0.00in /  0mm 65 W/m2
09:40 53.6 °F /  12 °C 48.6 °F /  9.2 °C 29.72in /  1006.3hPa NW 5mph /  8km/h 5mph /  8km/h 83% 0.00in /  0mm 33 W/m2
09:45 53.7 °F /  12.1 °C 48.3 °F /  9.1 °C 29.72in /  1006.3hPa WNW 5mph /  8km/h 5mph /  8km/h 82% 0.00in /  0mm 139 W/m2
09:50 53.8 °F /  12.1 °C 48.4 °F /  9.1 °C 29.72in /  1006.3hPa NW 5mph /  8km/h 5mph /  8km/h 82% 0.00in /  0mm 54 W/m2
09:55 54 °F /  12.2 °C 48.6 °F /  9.2 °C 29.72in /  1006.3hPa NNW 5mph /  8km/h 5mph /  8km/h 82% 0.00in /  0mm 42 W/m2
10:00 54.2 °F /  12.3 °C 48.8 °F /  9.3 °C 29.72in /  1006.3hPa WNW 5mph /  8km/h 6mph /  9.7km/h 82% 0.00in /  0mm 37 W/m2
10:05 54.3 °F /  12.4 °C 48.9 °F /  9.4 °C 29.73in /  1006.7hPa West 6mph /  9.7km/h 8mph /  12.9km/h 82% 0.00in /  0mm 47 W/m2
10:10 54.5 °F /  12.5 °C 49.1 °F /  9.5 °C 29.73in /  1006.7hPa WSW 6mph /  9.7km/h 7mph /  11.3km/h 82% 0.00in /  0mm 42 W/m2
10:15 54.6 °F /  12.6 °C 48.9 °F /  9.4 °C 29.73in /  1006.7hPa NW 6mph /  9.7km/h 7mph /  11.3km/h 81% 0.00in /  0mm 40 W/m2
10:20 54.7 °F /  12.6 °C 49 °F /  9.4 °C 29.73in /  1006.7hPa NW 6mph /  9.7km/h 13mph /  20.9km/h 81% 0.00in /  0mm 44 W/m2
10:25 54.8 °F /  12.7 °C 49.1 °F /  9.5 °C 29.73in /  1006.7hPa WNW 6mph /  9.7km/h 13mph /  20.9km/h 81% 0.00in /  0mm 47 W/m2
10:30 54.8 °F /  12.7 °C 49.1 °F /  9.5 °C 29.73in /  1006.7hPa NNW 6mph /  9.7km/h 6mph /  9.7km/h 81% 0.00in /  0mm 53 W/m2
10:35 55 °F /  12.8 °C 49.3 °F /  9.6 °C 29.73in /  1006.7hPa NW 6mph /  9.7km/h 6mph /  9.7km/h 81% 0.00in /  0mm 44 W/m2
10:40 54.9 °F /  12.7 °C 48.8 °F /  9.3 °C 29.73in /  1006.7hPa West 6mph /  9.7km/h 6mph /  9.7km/h 80% 0.00in /  0mm 51 W/m2
10:45 55 °F /  12.8 °C 49.3 °F /  9.6 °C 29.73in /  1006.7hPa NW 6mph /  9.7km/h 6mph /  9.7km/h 81% 0.00in /  0mm 56 W/m2
10:50 55 °F /  12.8 °C 49.3 °F /  9.6 °C 29.73in /  1006.7hPa West 6mph /  9.7km/h 6mph /  9.7km/h 81% 0.00in /  0mm 51 W/m2
10:55 55.2 °F /  12.9 °C 49.5 °F /  9.7 °C 29.73in /  1006.7hPa WSW 5mph /  8km/h 6mph /  9.7km/h 81% 0.00in /  0mm 49 W/m2
11:00 55.2 °F /  12.9 °C 49.1 °F /  9.5 °C 29.74in /  1007hPa WNW 5mph /  8km/h 12mph /  19.3km/h 80% 0.00in /  0mm 44 W/m2
11:05 55.2 °F /  12.9 °C 48.8 °F /  9.3 °C 29.74in /  1007hPa WNW 6mph /  9.7km/h 12mph /  19.3km/h 79% 0.00in /  0mm 44 W/m2
11:10 55.2 °F /  12.9 °C 48.5 °F /  9.2 °C 29.74in /  1007hPa NW 6mph /  9.7km/h 6mph /  9.7km/h 78% 0.00in /  0mm 40 W/m2
11:15 55.2 °F /  12.9 °C 48.5 °F /  9.2 °C 29.74in /  1007hPa NW 6mph /  9.7km/h 9mph /  14.5km/h 78% 0.00in /  0mm 47 W/m2
11:20 55.4 °F /  13 °C 48.7 °F /  9.3 °C 29.74in /  1007hPa WSW 6mph /  9.7km/h 6mph /  9.7km/h 78% 0.00in /  0mm 74 W/m2
11:25 55.4 °F /  13 °C 48.3 °F /  9.1 °C 29.74in /  1007hPa NNW 6mph /  9.7km/h 6mph /  9.7km/h 77% 0.00in /  0mm 44 W/m2
11:30 55.4 °F /  13 °C 47.6 °F /  8.7 °C 29.74in /  1007hPa NNW 7mph /  11.3km/h 7mph /  11.3km/h 75% 0.00in /  0mm 42 W/m2
11:35 55.5 °F /  13.1 °C 47.7 °F /  8.7 °C 29.75in /  1007.3hPa WNW 7mph /  11.3km/h 7mph /  11.3km/h 75% 0.00in /  0mm 62 W/m2
11:40 55.6 °F /  13.1 °C 47.8 °F /  8.8 °C 29.75in /  1007.3hPa WSW 7mph /  11.3km/h 7mph /  11.3km/h 75% 0.00in /  0mm 77 W/m2
11:45 56 °F /  13.3 °C 47.5 °F /  8.6 °C 29.75in /  1007.3hPa WSW 6mph /  9.7km/h 7mph /  11.3km/h 73% 0.00in /  0mm 60 W/m2
11:50 56.1 °F /  13.4 °C 47.9 °F /  8.8 °C 29.75in /  1007.3hPa NW 6mph /  9.7km/h 7mph /  11.3km/h 74% 0.00in /  0mm 91 W/m2
11:55 56.1 °F /  13.4 °C 47.2 °F /  8.4 °C 29.75in /  1007.3hPa North 7mph /  11.3km/h 7mph /  11.3km/h 72% 0.00in /  0mm 113 W/m2
12:00 56.2 °F /  13.4 °C 46.5 °F /  8.1 °C 29.75in /  1007.3hPa SSW 7mph /  11.3km/h 7mph /  11.3km/h 70% 0.00in /  0mm 69 W/m2
12:05 56.1 °F /  13.4 °C 46.4 °F /  8 °C 29.75in /  1007.3hPa WNW 6mph /  9.7km/h 7mph /  11.3km/h 70% 0.00in /  0mm 555 W/m2
12:10 56.1 °F /  13.4 °C 45.7 °F /  7.6 °C 29.76in /  1007.7hPa West 7mph /  11.3km/h 10mph /  16.1km/h 68% 0.00in /  0mm 563 W/m2
12:15 56.3 °F /  13.5 °C 46.3 °F /  7.9 °C 29.76in /  1007.7hPa WSW 7mph /  11.3km/h 10mph /  16.1km/h 69% 0.00in /  0mm 598 W/m2
12:20 56.3 °F /  13.5 °C 45.9 °F /  7.7 °C 29.76in /  1007.7hPa West 6mph /  9.7km/h 6mph /  9.7km/h 68% 0.00in /  0mm 123 W/m2
12:25 56.3 °F /  13.5 °C 46.3 °F /  7.9 °C 29.76in /  1007.7hPa NNW 5mph /  8km/h 6mph /  9.7km/h 69% 0.00in /  0mm 88 W/m2
12:30 56.2 °F /  13.4 °C 45.8 °F /  7.7 °C 29.76in /  1007.7hPa West 5mph /  8km/h 5mph /  8km/h 68% 0.00in /  0mm 72 W/m2
12:35 56 °F /  13.3 °C 45.2 °F /  7.3 °C 29.76in /  1007.7hPa WNW 6mph /  9.7km/h 7mph /  11.3km/h 67% 0.00in /  0mm 79 W/m2
12:40 55.8 °F /  13.2 °C 45 °F /  7.2 °C 29.76in /  1007.7hPa WNW 7mph /  11.3km/h 7mph /  11.3km/h 67% 0.00in /  0mm 90 W/m2
12:45 55.8 °F /  13.2 °C 45 °F /  7.2 °C 29.76in /  1007.7hPa NNW 7mph /  11.3km/h 7mph /  11.3km/h 67% 0.00in /  0mm 613 W/m2
12:50 56 °F /  13.3 °C 45.6 °F /  7.6 °C 29.76in /  1007.7hPa NW 7mph /  11.3km/h 11mph /  17.7km/h 68% 0.00in /  0mm 664 W/m2
12:55 56.3 °F /  13.5 °C 45.9 °F /  7.7 °C 29.76in /  1007.7hPa WSW 7mph /  11.3km/h 11mph /  17.7km/h 68% 0.00in /  0mm 178 W/m2
13:00 56.4 °F /  13.6 °C 46 °F /  7.8 °C 29.76in /  1007.7hPa WNW 6mph /  9.7km/h 6mph /  9.7km/h 68% 0.00in /  0mm 171 W/m2
13:05 56.3 °F /  13.5 °C 46.3 °F /  7.9 °C 29.76in /  1007.7hPa NNW 5mph /  8km/h 7mph /  11.3km/h 69% 0.00in /  0mm 185 W/m2
13:10 56.2 °F /  13.4 °C 45.8 °F /  7.7 °C 29.76in /  1007.7hPa West 6mph /  9.7km/h 14mph /  22.5km/h 68% 0.00in /  0mm 202 W/m2
13:15 56.2 °F /  13.4 °C 45.8 °F /  7.7 °C 29.77in /  1008hPa NNW 6mph /  9.7km/h 14mph /  22.5km/h 68% 0.00in /  0mm 246 W/m2
13:20 56.2 °F /  13.4 °C 45.4 °F /  7.4 °C 29.76in /  1007.7hPa West 6mph /  9.7km/h 6mph /  9.7km/h 67% 0.00in /  0mm 316 W/m2
13:25 56.3 °F /  13.5 °C 45.1 °F /  7.3 °C 29.76in /  1007.7hPa West 7mph /  11.3km/h 7mph /  11.3km/h 66% 0.00in /  0mm 250 W/m2
13:30 56.4 °F /  13.6 °C 45.2 °F /  7.3 °C 29.76in /  1007.7hPa NW 6mph /  9.7km/h 6mph /  9.7km/h 66% 0.00in /  0mm 176 W/m2
13:35 56.3 °F /  13.5 °C 45.1 °F /  7.3 °C 29.76in /  1007.7hPa NE 5mph /  8km/h 7mph /  11.3km/h 66% 0.00in /  0mm 90 W/m2
13:40 56.4 °F /  13.6 °C 44.8 °F /  7.1 °C 29.76in /  1007.7hPa South 5mph /  8km/h 5mph /  8km/h 65% 0.00in /  0mm 601 W/m2
13:45 56.5 °F /  13.6 °C 44.5 °F /  6.9 °C 29.76in /  1007.7hPa WSW 6mph /  9.7km/h 7mph /  11.3km/h 64% 0.00in /  0mm 643 W/m2
13:50 56.8 °F /  13.8 °C 44.7 °F /  7.1 °C 29.76in /  1007.7hPa North 5mph /  8km/h 9mph /  14.5km/h 64% 0.00in /  0mm 696 W/m2
13:55 57.1 °F /  13.9 °C 45 °F /  7.2 °C 29.76in /  1007.7hPa SW 5mph /  8km/h 9mph /  14.5km/h 64% 0.00in /  0mm 403 W/m2
14:00 57.2 °F /  14 °C 45.5 °F /  7.5 °C 29.76in /  1007.7hPa NW 4mph /  6.4km/h 5mph /  8km/h 65% 0.00in /  0mm 202 W/m2
14:05 57.3 °F /  14.1 °C 45.6 °F /  7.6 °C 29.76in /  1007.7hPa WNW 4mph /  6.4km/h 7mph /  11.3km/h 65% 0.00in /  0mm 269 W/m2
14:10 57.4 °F /  14.1 °C 44.9 °F /  7.2 °C 29.76in /  1007.7hPa West 5mph /  8km/h 7mph /  11.3km/h 63% 0.00in /  0mm 659 W/m2
14:15 57.7 °F /  14.3 °C 45.6 °F /  7.6 °C 29.76in /  1007.7hPa NW 6mph /  9.7km/h 7mph /  11.3km/h 64% 0.00in /  0mm 253 W/m2
14:20 58.1 °F /  14.5 °C 46 °F /  7.8 °C 29.76in /  1007.7hPa WSW 5mph /  8km/h 6mph /  9.7km/h 64% 0.00in /  0mm 650 W/m2
14:25 58.4 °F /  14.7 °C 45.8 °F /  7.7 °C 29.76in /  1007.7hPa WNW 5mph /  8km/h 9mph /  14.5km/h 63% 0.00in /  0mm 178 W/m2
14:30 58.3 °F /  14.6 °C 45.3 °F /  7.4 °C 29.76in /  1007.7hPa WNW 6mph /  9.7km/h 6mph /  9.7km/h 62% 0.00in /  0mm 148 W/m2
14:35 58.1 °F /  14.5 °C 44.7 °F /  7.1 °C 29.76in /  1007.7hPa North 6mph /  9.7km/h 6mph /  9.7km/h 61% 0.00in /  0mm 88 W/m2
14:40 57.7 °F /  14.3 °C 44.8 °F /  7.1 °C 29.76in /  1007.7hPa NW 5mph /  8km/h 6mph /  9.7km/h 62% 0.00in /  0mm 91 W/m2
14:45 57.5 °F /  14.2 °C 45 °F /  7.2 °C 29.77in /  1008hPa West 6mph /  9.7km/h 7mph /  11.3km/h 63% 0.00in /  0mm 98 W/m2
14:50 57.2 °F /  14 °C 44.3 °F /  6.8 °C 29.77in /  1008hPa West 6mph /  9.7km/h 8mph /  12.9km/h 62% 0.00in /  0mm 107 W/m2
14:55 56.9 °F /  13.8 °C 44 °F /  6.7 °C 29.77in /  1008hPa West 7mph /  11.3km/h 8mph /  12.9km/h 62% 0.00in /  0mm 128 W/m2
15:00 56.8 °F /  13.8 °C 44.3 °F /  6.8 °C 29.77in /  1008hPa WSW 7mph /  11.3km/h 7mph /  11.3km/h 63% 0.00in /  0mm 156 W/m2
15:05 56.8 °F /  13.8 °C 44.7 °F /  7.1 °C 29.77in /  1008hPa SW 6mph /  9.7km/h 7mph /  11.3km/h 64% 0.00in /  0mm 172 W/m2
15:10 56.8 °F /  13.8 °C 45.2 °F /  7.3 °C 29.77in /  1008hPa NNW 5mph /  8km/h 7mph /  11.3km/h 65% 0.00in /  0mm 197 W/m2
15:15 56.8 °F /  13.8 °C 45.2 °F /  7.3 °C 29.77in /  1008hPa NNW 5mph /  8km/h 7mph /  11.3km/h 65% 0.00in /  0mm 213 W/m2
15:20 56.9 °F /  13.8 °C 44.8 °F /  7.1 °C 29.78in /  1008.4hPa WNW 5mph /  8km/h 6mph /  9.7km/h 64% 0.00in /  0mm 232 W/m2
15:25 56.9 °F /  13.8 °C 44.4 °F /  6.9 °C 29.78in /  1008.4hPa West 6mph /  9.7km/h 9mph /  14.5km/h 63% 0.00in /  0mm 213 W/m2
15:30 56.9 °F /  13.8 °C 44.8 °F /  7.1 °C 29.78in /  1008.4hPa NW 6mph /  9.7km/h 8mph /  12.9km/h 64% 0.00in /  0mm 176 W/m2
15:35 57 °F /  13.9 °C 44.9 °F /  7.2 °C 29.78in /  1008.4hPa NNW 5mph /  8km/h 8mph /  12.9km/h 64% 0.00in /  0mm 141 W/m2
15:40 56.8 °F /  13.8 °C 44.7 °F /  7.1 °C 29.78in /  1008.4hPa WSW 5mph /  8km/h 14mph /  22.5km/h 64% 0.00in /  0mm 128 W/m2
15:45 56.9 °F /  13.8 °C 45.3 °F /  7.4 °C 29.78in /  1008.4hPa WNW 6mph /  9.7km/h 14mph /  22.5km/h 65% 0.00in /  0mm 148 W/m2
15:50 56.8 °F /  13.8 °C 44.7 °F /  7.1 °C 29.78in /  1008.4hPa NNW 6mph /  9.7km/h 6mph /  9.7km/h 64% 0.00in /  0mm 172 W/m2
15:55 56.8 °F /  13.8 °C 44.7 °F /  7.1 °C 29.78in /  1008.4hPa SW 6mph /  9.7km/h 6mph /  9.7km/h 64% 0.00in /  0mm 181 W/m2
16:00 56.7 °F /  13.7 °C 43.4 °F /  6.3 °C 29.79in /  1008.7hPa West 6mph /  9.7km/h 6mph /  9.7km/h 61% 0.00in /  0mm 162 W/m2
16:05 56.6 °F /  13.7 °C 43.7 °F /  6.5 °C 29.78in /  1008.4hPa NW 5mph /  8km/h 8mph /  12.9km/h 62% 0.00in /  0mm 158 W/m2
16:10 56.7 °F /  13.7 °C 44.2 °F /  6.8 °C 29.79in /  1008.7hPa West 5mph /  8km/h 5mph /  8km/h 63% 0.00in /  0mm 134 W/m2
16:15 56.6 °F /  13.7 °C 44.6 °F /  7 °C 29.79in /  1008.7hPa West 5mph /  8km/h 5mph /  8km/h 64% 0.00in /  0mm 98 W/m2
16:20 56.5 °F /  13.6 °C 44.9 °F /  7.2 °C 29.79in /  1008.7hPa NW 5mph /  8km/h 5mph /  8km/h 65% 0.00in /  0mm 62 W/m2
16:25 56.4 °F /  13.6 °C 45.2 °F /  7.3 °C 29.79in /  1008.7hPa WNW 6mph /  9.7km/h 6mph /  9.7km/h 66% 0.00in /  0mm 65 W/m2
16:30 56.3 °F /  13.5 °C 44.7 °F /  7.1 °C 29.79in /  1008.7hPa West 6mph /  9.7km/h 6mph /  9.7km/h 65% 0.00in /  0mm 53 W/m2
16:35 56.1 °F /  13.4 °C 45.3 °F /  7.4 °C 29.79in /  1008.7hPa NW 6mph /  9.7km/h 10mph /  16.1km/h 67% 0.00in /  0mm 46 W/m2
16:40 56 °F /  13.3 °C 45.2 °F /  7.3 °C 29.79in /  1008.7hPa WNW 6mph /  9.7km/h 9mph /  14.5km/h 67% 0.00in /  0mm 37 W/m2
16:45 55.9 °F /  13.3 °C 45.1 °F /  7.3 °C 29.80in /  1009hPa WNW 5mph /  8km/h 9mph /  14.5km/h 67% 0.00in /  0mm 35 W/m2
16:50 55.8 °F /  13.2 °C 45.4 °F /  7.4 °C 29.80in /  1009hPa WSW 5mph /  8km/h 8mph /  12.9km/h 68% 0.00in /  0mm 32 W/m2
16:55 55.7 °F /  13.2 °C 44.9 °F /  7.2 °C 29.80in /  1009hPa NW 5mph /  8km/h 8mph /  12.9km/h 67% 0.00in /  0mm 25 W/m2
17:00 55.5 °F /  13.1 °C 45.5 °F /  7.5 °C 29.80in /  1009hPa West 6mph /  9.7km/h 13mph /  20.9km/h 69% 0.00in /  0mm 26 W/m2
17:05 55.4 °F /  13 °C 45.8 °F /  7.7 °C 29.80in /  1009hPa West 6mph /  9.7km/h 14mph /  22.5km/h 70% 0.00in /  0mm 28 W/m2
17:10 55.1 °F /  12.8 °C 45.5 °F /  7.5 °C 29.80in /  1009hPa NW 5mph /  8km/h 5mph /  8km/h 70% 0.00in /  0mm 19 W/m2
17:15 55 °F /  12.8 °C 45.4 °F /  7.4 °C 29.80in /  1009hPa NW 5mph /  8km/h 7mph /  11.3km/h 70% 0.00in /  0mm 35 W/m2
17:20 54.8 °F /  12.7 °C 44.8 °F /  7.1 °C 29.81in /  1009.4hPa WSW 5mph /  8km/h 5mph /  8km/h 69% 0.00in /  0mm 30 W/m2
17:25 54.8 °F /  12.7 °C 44.8 °F /  7.1 °C 29.81in /  1009.4hPa NNW 7mph /  11.3km/h 7mph /  11.3km/h 69% 0.00in /  0mm 35 W/m2
17:30 54.8 °F /  12.7 °C 44.4 °F /  6.9 °C 29.81in /  1009.4hPa SW 7mph /  11.3km/h 7mph /  11.3km/h 68% 0.00in /  0mm 26 W/m2
17:35 54.8 °F /  12.7 °C 44.4 °F /  6.9 °C 29.81in /  1009.4hPa NW 6mph /  9.7km/h 7mph /  11.3km/h 68% 0.00in /  0mm 28 W/m2
17:40 54.8 °F /  12.7 °C 44.4 °F /  6.9 °C 29.81in /  1009.4hPa SW 6mph /  9.7km/h 6mph /  9.7km/h 68% 0.00in /  0mm 33 W/m2
17:45 54.8 °F /  12.7 °C 44 °F /  6.7 °C 29.81in /  1009.4hPa West 6mph /  9.7km/h 12mph /  19.3km/h 67% 0.00in /  0mm 32 W/m2
17:50 54.7 °F /  12.6 °C 43.6 °F /  6.4 °C 29.81in /  1009.4hPa NNW 6mph /  9.7km/h 6mph /  9.7km/h 66% 0.00in /  0mm 33 W/m2
17:55 54.7 °F /  12.6 °C 43.6 °F /  6.4 °C 29.82in /  1009.7hPa NW 6mph /  9.7km/h 7mph /  11.3km/h 66% 0.00in /  0mm 40 W/m2
18:00 54.7 °F /  12.6 °C 43.6 °F /  6.4 °C 29.82in /  1009.7hPa North 6mph /  9.7km/h 6mph /  9.7km/h 66% 0.00in /  0mm 19 W/m2
18:05 54.6 °F /  12.6 °C 44.2 °F /  6.8 °C 29.82in /  1009.7hPa WSW 6mph /  9.7km/h 6mph /  9.7km/h 68% 0.00in /  0mm 12 W/m2
Sand Point, Michigan, USA
Compliments of Weather Underground - 2 mb